createdAt,value
2017-07-28T00:00:06.835Z,99.99
2017-07-28T00:02:31.021Z,99.99
2017-07-28T00:04:54.982Z,99.99
2017-07-28T00:07:18.891Z,99.99
2017-07-28T00:09:50.434Z,99.99
2017-07-28T00:12:05.985Z,99.99
2017-07-28T00:14:29.953Z,99.99
2017-07-28T00:16:55.003Z,99.99
2017-07-28T00:19:18.992Z,99.99
2017-07-28T00:21:42.941Z,99.99
2017-07-28T00:23:58.480Z,99.99
2017-07-28T00:26:15.041Z,99.99
2017-07-28T00:28:45.987Z,99.99
2017-07-28T00:31:01.575Z,99.99
2017-07-28T00:33:25.548Z,99.99
2017-07-28T00:35:49.526Z,99.99
2017-07-28T00:38:13.507Z,99.99
2017-07-28T00:40:37.481Z,99.99
2017-07-28T00:42:30.407Z,99.99
2017-07-28T00:44:54.434Z,99.99
2017-07-28T00:47:18.372Z,99.99
2017-07-28T00:49:42.345Z,99.99
2017-07-28T00:52:06.369Z,99.99
2017-07-28T00:54:30.439Z,99.99
2017-07-28T00:56:54.518Z,99.99
2017-07-28T00:59:18.485Z,99.99
2017-07-28T01:01:42.485Z,99.99
2017-07-28T01:04:06.461Z,99.99
2017-07-28T01:06:22.110Z,99.99
2017-07-28T01:08:29.225Z,99.99
2017-07-28T01:10:44.771Z,99.99
2017-07-28T01:13:08.737Z,99.99
2017-07-28T01:15:32.703Z,99.99
2017-07-28T01:17:48.348Z,99.99
2017-07-28T01:20:03.877Z,99.99
2017-07-28T01:22:02.584Z,99.99
2017-07-28T01:24:26.600Z,99.99
2017-07-28T01:26:42.141Z,99.99
2017-07-28T01:28:40.745Z,99.99
2017-07-28T01:30:56.253Z,99.99
2017-07-28T01:33:20.330Z,99.99
2017-07-28T01:35:44.412Z,99.99
2017-07-28T01:38:08.497Z,99.99
2017-07-28T01:40:24.069Z,99.99
2017-07-28T01:42:39.658Z,99.99
2017-07-28T01:44:46.714Z,99.99
2017-07-28T01:47:02.322Z,99.99
2017-07-28T01:49:26.299Z,99.99
2017-07-28T01:51:50.281Z,99.99
2017-07-28T01:54:05.798Z,99.99
2017-07-28T01:56:29.740Z,99.99
2017-07-28T01:58:53.729Z,99.99
2017-07-28T02:01:09.193Z,99.99
2017-07-28T02:03:24.699Z,99.99
2017-07-28T02:05:48.761Z,99.99
2017-07-28T02:08:04.256Z,99.99
2017-07-28T02:10:28.221Z,99.99
2017-07-28T02:12:52.195Z,99.99
2017-07-28T02:15:07.766Z,99.99
2017-07-28T02:17:31.759Z,99.99
2017-07-28T02:19:55.676Z,99.99
2017-07-28T02:22:19.593Z,99.99
2017-07-28T02:24:35.073Z,99.99
2017-07-28T02:26:50.682Z,99.99
2017-07-28T02:29:06.194Z,99.99
2017-07-28T02:31:30.140Z,99.99
2017-07-28T02:33:54.116Z,99.99
2017-07-28T02:36:18.105Z,99.99
2017-07-28T02:38:33.681Z,99.99
2017-07-28T02:40:49.267Z,99.99
2017-07-28T02:43:13.243Z,99.99
2017-07-28T02:45:37.121Z,99.99
2017-07-28T02:48:00.986Z,99.99
2017-07-28T02:50:16.443Z,99.99
2017-07-28T02:52:31.906Z,99.99
2017-07-28T02:54:55.747Z,99.99
2017-07-28T02:57:19.623Z,99.99
2017-07-28T02:59:43.590Z,99.99
2017-07-28T03:01:44.920Z,99.99
2017-07-28T03:04:00.448Z,99.99
2017-07-28T03:06:24.347Z,99.99
2017-07-28T03:08:48.235Z,99.99
2017-07-28T03:11:12.121Z,99.99
2017-07-28T03:13:27.586Z,99.99
2017-07-28T03:15:28.930Z,99.99
2017-07-28T03:17:52.849Z,99.99
2017-07-28T03:20:08.287Z,99.99
2017-07-28T03:22:23.761Z,99.99
2017-07-28T03:24:47.661Z,99.99
2017-07-28T03:26:54.701Z,99.99
2017-07-28T03:29:10.161Z,99.99
2017-07-28T03:31:34.131Z,99.99
2017-07-28T03:33:58.112Z,99.99
2017-07-28T03:36:13.584Z,99.99
2017-07-28T03:38:37.457Z,99.99
2017-07-28T03:41:01.451Z,99.99
2017-07-28T03:43:17.005Z,99.99
2017-07-28T03:45:32.489Z,99.99
2017-07-28T03:47:56.492Z,99.99
2017-07-28T03:50:11.945Z,99.99
2017-07-28T03:52:35.845Z,99.99
2017-07-28T03:54:51.300Z,99.99
2017-07-28T03:57:15.195Z,99.99
2017-07-28T03:59:39.087Z,99.99
2017-07-28T04:02:03.063Z,99.99
2017-07-28T04:04:18.608Z,99.99
2017-07-28T04:06:43.544Z,99.99
2017-07-28T04:09:07.534Z,99.99
2017-07-28T04:11:14.553Z,99.99
2017-07-28T04:13:38.477Z,99.99
2017-07-28T04:15:54.072Z,99.99
2017-07-28T04:18:18.004Z,99.99
2017-07-28T04:20:41.960Z,99.99
2017-07-28T04:23:05.895Z,99.99
2017-07-28T04:25:30.912Z,99.99
2017-07-28T04:27:54.889Z,99.99
2017-07-28T04:30:18.864Z,99.99
2017-07-28T04:32:42.852Z,99.99
2017-07-28T04:34:58.289Z,99.99
2017-07-28T04:37:22.218Z,99.99
2017-07-28T04:39:46.104Z,99.99
2017-07-28T04:42:10.164Z,99.99
2017-07-28T04:44:34.113Z,99.99
2017-07-28T04:46:58.127Z,99.99
2017-07-28T04:49:22.208Z,99.99
2017-07-28T04:51:46.289Z,99.99
2017-07-28T04:54:01.874Z,99.99
2017-07-28T04:56:17.451Z,99.99
2017-07-28T04:58:41.536Z,99.99
2017-07-28T05:01:05.633Z,99.99
2017-07-28T05:03:21.199Z,99.99
2017-07-28T05:05:45.284Z,99.99
2017-07-28T05:08:09.368Z,99.99
2017-07-28T05:10:25.005Z,99.99
2017-07-28T05:12:32.189Z,99.99
2017-07-28T05:14:56.345Z,99.99
2017-07-28T05:17:20.312Z,99.99
2017-07-28T05:21:28.655Z,99.3
2017-07-28T05:23:52.733Z,95.06
2017-07-28T05:26:16.896Z,93.18
2017-07-28T05:28:42.001Z,91.63
2017-07-28T05:30:57.789Z,89.17
2017-07-28T05:33:21.979Z,84.46
2017-07-28T05:35:46.268Z,80.73
2017-07-28T05:38:10.555Z,80.73
2017-07-28T05:40:34.842Z,78.74
2017-07-28T05:42:59.071Z,79.47
2017-07-28T05:45:14.862Z,80.79
2017-07-28T05:47:30.702Z,82.62
2017-07-28T05:49:46.622Z,81.56
2017-07-28T05:52:10.895Z,82.58
2017-07-28T05:54:35.176Z,83.55
2017-07-28T05:56:59.443Z,84.38
2017-07-28T05:59:23.744Z,86.46
2017-07-28T06:01:47.972Z,87.29
2017-07-28T06:04:03.810Z,88.25
2017-07-28T06:06:28.099Z,88.54
2017-07-28T06:08:43.843Z,89.03
2017-07-28T06:11:08.072Z,88.35
2017-07-28T06:13:32.249Z,86.75
2017-07-28T06:15:56.437Z,85.49
2017-07-28T06:18:20.728Z,83.66
2017-07-28T06:20:45.017Z,83.64
2017-07-28T06:23:09.298Z,82.68
2017-07-28T06:25:33.602Z,82.93
2017-07-28T06:27:57.874Z,81.52
2017-07-28T06:30:22.163Z,80.59
2017-07-28T06:32:47.481Z,80.49
2017-07-28T06:35:11.761Z,80.24
2017-07-28T06:37:36.033Z,76.99
2017-07-28T06:40:00.449Z,75.96
2017-07-28T06:42:24.833Z,75.63
2017-07-28T06:44:40.720Z,78.02
2017-07-28T06:47:05.107Z,78.46
2017-07-28T06:49:20.900Z,77.88
2017-07-28T06:51:45.186Z,77.3
2017-07-28T06:54:01.077Z,75.44
2017-07-28T06:56:16.939Z,72.51
2017-07-28T06:58:41.360Z,62.89
2017-07-28T07:01:05.896Z,54.3
2017-07-28T07:03:30.678Z,49.43
2017-07-28T07:05:55.718Z,46.73
2017-07-28T07:08:21.934Z,48.18
2017-07-28T07:10:47.250Z,49.58
2017-07-28T07:13:12.557Z,50.09
2017-07-28T07:15:37.825Z,45.25
2017-07-28T07:18:03.110Z,48.5
2017-07-28T07:20:28.368Z,50.17
2017-07-28T07:22:53.583Z,52.1
2017-07-28T07:25:18.721Z,50.71
2017-07-28T07:27:35.306Z,51.44
2017-07-28T07:30:00.499Z,52.32
2017-07-28T07:32:25.611Z,51.95
2017-07-28T07:34:50.709Z,51.59
2017-07-28T07:37:15.748Z,54.03
2017-07-28T07:39:40.726Z,53.44
2017-07-28T07:42:05.834Z,56.87
2017-07-28T07:44:22.262Z,57.6
2017-07-28T07:46:47.110Z,58.03
2017-07-28T07:49:12.029Z,58.71
2017-07-28T07:53:21.277Z,57.71
2017-07-28T07:55:23.405Z,56.01
2017-07-28T07:57:48.121Z,54.99
2017-07-28T08:00:04.405Z,56.1
2017-07-28T08:02:29.138Z,55.25
2017-07-28T08:04:53.878Z,51.31
2017-07-28T08:07:18.658Z,44.31
2017-07-28T08:09:35.104Z,41.17
2017-07-28T08:12:00.112Z,42.1
2017-07-28T08:14:17.490Z,41.37
2017-07-28T08:16:42.693Z,38.65
2017-07-28T08:19:07.915Z,34.22
2017-07-28T08:21:24.799Z,37.12
2017-07-28T08:23:50.137Z,37.17
2017-07-28T08:26:15.553Z,36.04
2017-07-28T08:28:40.981Z,36.44
2017-07-28T08:31:06.483Z,37.17
2017-07-28T08:33:32.024Z,38.04
2017-07-28T08:35:57.544Z,40.76
2017-07-28T08:38:14.523Z,41.02
2017-07-28T08:40:16.319Z,40.29
2017-07-28T08:42:41.700Z,42.29
2017-07-28T08:45:07.053Z,42.47
2017-07-28T08:47:23.850Z,42.72
2017-07-28T08:49:40.633Z,40.29
2017-07-28T08:52:05.918Z,43.98
2017-07-28T08:54:22.643Z,44.42
2017-07-28T08:56:47.888Z,45.55
2017-07-28T08:58:50.044Z,49.27
2017-07-28T09:01:15.276Z,49
2017-07-28T09:03:31.883Z,49.99
2017-07-28T09:05:48.400Z,49.76
2017-07-28T09:08:13.425Z,50.24
2017-07-28T09:10:38.422Z,46.97
2017-07-28T09:12:48.602Z,43.38
2017-07-28T09:15:13.650Z,41.51
2017-07-28T09:17:38.711Z,41.51
2017-07-28T09:19:55.406Z,41.16
2017-07-28T09:22:20.549Z,40.48
2017-07-28T09:24:45.821Z,40.74
2017-07-28T09:27:11.041Z,40.94
2017-07-28T09:29:36.285Z,44.26
2017-07-28T09:31:53.046Z,41.78
2017-07-28T09:34:09.868Z,42.56
2017-07-28T09:36:26.578Z,44.89
2017-07-28T09:38:51.783Z,44.67
2017-07-28T09:41:16.987Z,44.96
2017-07-28T09:43:42.193Z,45.8
2017-07-28T09:45:58.727Z,45.09
2017-07-28T09:48:15.310Z,44.82
2017-07-28T09:50:40.320Z,44.92
2017-07-28T09:52:42.443Z,44.73
2017-07-28T09:55:07.577Z,44.92
2017-07-28T09:57:32.512Z,43.2
2017-07-28T09:59:57.511Z,42.79
2017-07-28T10:02:22.526Z,42.09
2017-07-28T10:04:39.031Z,42.26
2017-07-28T10:07:04.024Z,42.93
2017-07-28T10:09:28.957Z,44.64
2017-07-28T10:11:53.932Z,47.54
2017-07-28T10:14:18.769Z,49.95
2017-07-28T10:16:43.584Z,50.53
2017-07-28T10:19:08.380Z,53.47
2017-07-28T10:21:33.183Z,51.62
2017-07-28T10:23:57.869Z,52.91
2017-07-28T10:26:22.511Z,50.73
2017-07-28T10:28:24.029Z,49.1
2017-07-28T10:30:40.221Z,48.54
2017-07-28T10:33:04.918Z,47.42
2017-07-28T10:35:21.071Z,46.25
2017-07-28T10:37:37.230Z,46.25
2017-07-28T10:40:01.973Z,45.03
2017-07-28T10:42:12.609Z,44.17
2017-07-28T10:44:37.436Z,45.05
2017-07-28T10:47:02.230Z,45.9
2017-07-28T10:49:27.075Z,46
2017-07-28T10:51:43.474Z,45.98
2017-07-28T10:54:08.380Z,46.54
2017-07-28T10:56:09.945Z,47.32
2017-07-28T10:58:34.763Z,46.93
2017-07-28T11:00:59.539Z,48.17
2017-07-28T11:03:01.591Z,47.9
2017-07-28T11:05:26.399Z,47.42
2017-07-28T11:07:51.132Z,46.23
2017-07-28T11:10:15.838Z,46.1
2017-07-28T11:12:32.083Z,45.19
2017-07-28T11:14:56.861Z,44.74
2017-07-28T11:17:21.670Z,42.94
2017-07-28T11:19:46.583Z,44.44
2017-07-28T11:22:11.416Z,46.23
2017-07-28T11:24:44.988Z,47.86
2017-07-28T11:27:25.382Z,47.39
2017-07-28T11:29:50.172Z,46.54
2017-07-28T11:32:31.935Z,48.27
2017-07-28T11:34:58.792Z,46.86
2017-07-28T11:37:16.135Z,47.32
2017-07-28T11:39:40.896Z,46.14
2017-07-28T11:41:57.149Z,45.59
2017-07-28T11:44:23.038Z,45.95
2017-07-28T11:46:47.932Z,45.95
2017-07-28T11:49:12.728Z,46.05
2017-07-28T11:51:37.539Z,46.44
2017-07-28T11:54:02.314Z,46.15
2017-07-28T11:56:29.174Z,47.76
2017-07-28T11:58:56.042Z,48.63
2017-07-28T12:01:27.496Z,47.66
2017-07-28T12:03:52.321Z,47.49
2017-07-28T12:06:08.607Z,47.98
2017-07-28T12:10:09.154Z,47.71
2017-07-28T12:12:25.533Z,46.83
2017-07-28T12:14:50.224Z,46.73
2017-07-28T12:17:14.952Z,46
2017-07-28T12:19:31.187Z,46.59
2017-07-28T12:21:55.920Z,47.08
2017-07-28T12:24:20.698Z,47.03
2017-07-28T12:26:45.427Z,46.47
2017-07-28T12:29:25.979Z,45.98
2017-07-28T12:31:50.781Z,46.64
2017-07-28T12:34:15.513Z,46.2
2017-07-28T12:36:40.285Z,45.95
2017-07-28T12:39:05.012Z,46.73
2017-07-28T12:41:29.751Z,46.64
2017-07-28T12:43:55.626Z,47.1
2017-07-28T12:46:27.042Z,46.64
2017-07-28T12:48:51.833Z,46.61
2017-07-28T12:51:16.745Z,47.03
2017-07-28T12:53:43.608Z,46.86
2017-07-28T12:56:08.368Z,45.12
2017-07-28T12:58:39.948Z,45.49
2017-07-28T13:01:04.751Z,46.83
2017-07-28T13:03:31.578Z,46.05
2017-07-28T13:05:56.503Z,46.54
2017-07-28T13:08:21.174Z,45.61
2017-07-28T13:10:47.947Z,45.32
2017-07-28T13:13:13.770Z,46.12
2017-07-28T13:17:14.833Z,47.13
2017-07-28T13:19:39.648Z,47.42
2017-07-28T13:21:55.970Z,46.83
2017-07-28T13:24:20.793Z,47.13
2017-07-28T13:26:45.536Z,47.22
2017-07-28T13:29:10.334Z,46.47
2017-07-28T13:31:35.074Z,46.02
2017-07-28T13:35:27.109Z,46.49
2017-07-28T13:37:51.921Z,45.34
2017-07-28T13:40:16.690Z,45.9
2017-07-28T13:42:32.988Z,45.54
2017-07-28T13:44:57.782Z,44.15
2017-07-28T13:47:22.591Z,46.15
2017-07-28T13:49:47.582Z,47.17
2017-07-28T13:51:49.154Z,47.86
2017-07-28T13:54:13.944Z,48.9
2017-07-28T13:56:38.694Z,48.63
2017-07-28T13:59:03.409Z,48.15
2017-07-28T14:01:28.054Z,48.44
2017-07-28T14:03:52.758Z,49.97
2017-07-28T14:06:17.447Z,50.26
2017-07-28T14:08:41.496Z,48.34
2017-07-28T14:11:14.956Z,48.36
2017-07-28T14:13:33.233Z,47.69
2017-07-28T14:16:07.049Z,48
2017-07-28T14:18:31.815Z,48
2017-07-28T14:20:56.623Z,47.44
2017-07-28T14:23:21.369Z,46.49
2017-07-28T14:25:46.427Z,47.15
2017-07-28T14:28:11.198Z,48.36
2017-07-28T14:30:35.953Z,47.73
2017-07-28T14:33:00.675Z,49.24
2017-07-28T14:35:25.428Z,48.66
2017-07-28T14:37:50.161Z,49.41
2017-07-28T14:40:14.826Z,49.71
2017-07-28T14:42:39.495Z,50.07
2017-07-28T14:45:04.198Z,50.19
2017-07-28T14:47:44.821Z,48.66
2017-07-28T14:50:09.500Z,48.1
2017-07-28T14:52:34.196Z,47.46
2017-07-28T14:54:58.952Z,47.44
2017-07-28T14:57:23.669Z,47.52
2017-07-28T14:59:48.401Z,45.95
2017-07-28T15:02:13.773Z,46.03
2017-07-28T15:04:37.959Z,44.9
2017-07-28T15:07:02.863Z,44.54
2017-07-28T15:09:27.673Z,44.83
2017-07-28T15:11:52.561Z,45.2
2017-07-28T15:14:17.367Z,44.48
2017-07-28T15:16:42.157Z,45.45
2017-07-28T15:19:06.962Z,45.25
2017-07-28T15:21:31.766Z,45.84
2017-07-28T15:23:48.022Z,46.32
2017-07-28T15:26:12.719Z,47.08
2017-07-28T15:28:37.547Z,47.37
2017-07-28T15:30:45.372Z,47.96
2017-07-28T15:33:01.677Z,48.25
2017-07-28T15:35:26.450Z,48.71
2017-07-28T15:37:51.091Z,49.02
2017-07-28T15:40:15.830Z,48.93
2017-07-28T15:42:18.872Z,49.22
2017-07-28T15:44:43.598Z,48.44
2017-07-28T15:47:08.402Z,48.36
2017-07-28T15:49:33.085Z,47
2017-07-28T15:51:50.979Z,47.37
2017-07-28T15:54:15.655Z,47.39
2017-07-28T15:58:07.811Z,46.42
2017-07-28T16:00:32.510Z,46.71
2017-07-28T16:02:57.213Z,46.91
2017-07-28T16:05:21.936Z,47.1
2017-07-28T16:07:46.619Z,47.17
2017-07-28T16:10:11.312Z,47.37
2017-07-28T16:12:36.004Z,47.17
2017-07-28T16:15:00.512Z,48.05
2017-07-28T16:17:25.184Z,47.27
2017-07-28T16:19:49.859Z,47.1
2017-07-28T16:22:14.566Z,46.91
2017-07-28T16:24:39.273Z,46.81
2017-07-28T16:27:04.881Z,46.88
2017-07-28T16:29:29.674Z,47.27
2017-07-28T16:31:54.359Z,48.15
2017-07-28T16:34:20.144Z,47.86
2017-07-28T16:36:44.919Z,47.27
2017-07-28T16:39:01.656Z,46.98
2017-07-28T16:41:17.903Z,47.27
2017-07-28T16:43:43.788Z,46.59
2017-07-28T16:46:23.202Z,46.81
2017-07-28T16:48:47.883Z,46.32
2017-07-28T16:51:12.539Z,47.37
2017-07-28T16:53:37.146Z,47.27
2017-07-28T16:56:01.762Z,47.47
2017-07-28T16:58:26.396Z,47.37
2017-07-28T17:00:51.027Z,48.34
2017-07-28T17:03:15.671Z,48.34
2017-07-28T17:05:57.261Z,47.3
2017-07-28T17:08:21.907Z,48.27
2017-07-28T17:10:46.548Z,47.49
2017-07-28T17:13:12.236Z,47.37
2017-07-28T17:17:13.658Z,48.68
2017-07-28T17:19:29.824Z,49.56
2017-07-28T17:21:54.429Z,48.95
2017-07-28T17:24:04.503Z,49.8
2017-07-28T17:26:12.166Z,49.8
2017-07-28T17:28:36.717Z,49.8
2017-07-28T17:31:01.266Z,50.48
2017-07-28T17:33:17.325Z,50.12
2017-07-28T17:35:41.879Z,49.73
2017-07-28T17:38:06.408Z,50.48
2017-07-28T17:40:31.871Z,50.48
2017-07-28T17:42:56.396Z,50.58
2017-07-28T17:45:28.891Z,50.68
2017-07-28T17:47:53.425Z,50.48
2017-07-28T17:50:18.063Z,50.38
2017-07-28T17:52:42.579Z,50.58
2017-07-28T17:55:08.213Z,50.58
2017-07-28T17:57:32.784Z,49.9
2017-07-28T17:59:57.375Z,50.68
2017-07-28T18:02:21.355Z,51.33
2017-07-28T18:04:37.443Z,51.55
2017-07-28T18:07:01.954Z,50.29
2017-07-28T18:09:26.504Z,50.29
2017-07-28T18:11:53.069Z,50.29
2017-07-28T18:14:03.113Z,50.48
2017-07-28T18:16:27.630Z,50.94
2017-07-28T18:18:52.094Z,51.33
2017-07-28T18:21:16.594Z,51.43
2017-07-28T18:23:41.053Z,52.3
2017-07-28T18:26:05.541Z,50.84
2017-07-28T18:28:30.046Z,51.91
2017-07-28T18:30:54.543Z,51.23
2017-07-28T18:33:19.029Z,51.23
2017-07-28T18:35:43.516Z,52.3
2017-07-28T18:38:08.010Z,51.81
2017-07-28T18:40:23.984Z,52.5
2017-07-28T18:42:40.123Z,52.76
2017-07-28T18:45:04.619Z,53.15
2017-07-28T18:47:29.111Z,53.15
2017-07-28T18:49:36.635Z,53.63
2017-07-28T18:52:01.089Z,53.02
2017-07-28T18:54:25.579Z,53.61
2017-07-28T18:56:49.986Z,53.99
2017-07-28T18:59:07.027Z,53.61
2017-07-28T19:01:38.061Z,54.19
2017-07-28T19:04:02.420Z,53.89
2017-07-28T19:06:26.837Z,53.22
2017-07-28T19:08:51.246Z,53.99
2017-07-28T19:11:07.198Z,54.96
2017-07-28T19:13:31.543Z,54.77
2017-07-28T19:15:55.971Z,54.74
2017-07-28T19:18:20.357Z,54.67
2017-07-28T19:20:36.380Z,54.77
2017-07-28T19:23:00.852Z,54.09
2017-07-28T19:25:25.236Z,54.58
2017-07-28T19:27:49.727Z,54.06
2017-07-28T19:30:15.240Z,54.84
2017-07-28T19:32:39.630Z,53.97
2017-07-28T19:35:03.930Z,54.74
2017-07-28T19:37:19.856Z,54.64
2017-07-28T19:39:35.743Z,54.86
2017-07-28T19:42:00.137Z,54.94
2017-07-28T19:44:24.450Z,54.45
2017-07-28T19:46:40.376Z,54.45
2017-07-28T19:48:56.258Z,54.84
2017-07-28T19:51:20.640Z,55.22
2017-07-28T19:53:36.531Z,54.94
2017-07-28T19:56:00.917Z,54.74
2017-07-28T19:58:25.308Z,54.84
2017-07-28T20:00:41.245Z,54.45
2017-07-28T20:03:05.695Z,54.55
2017-07-28T20:05:21.615Z,55.22
2017-07-28T20:07:45.978Z,56.36
2017-07-28T20:09:47.422Z,56.39
2017-07-28T20:12:03.355Z,56.59
2017-07-28T20:14:27.725Z,57.45
2017-07-28T20:16:52.082Z,57.33
2017-07-28T20:19:17.510Z,57.55
2017-07-28T20:21:43.941Z,57.65
2017-07-28T20:23:53.933Z,58.33
2017-07-28T20:26:15.953Z,58.88
2017-07-28T20:28:40.315Z,58.98
2017-07-28T20:30:56.175Z,59.75
2017-07-28T20:33:12.090Z,59.63
2017-07-28T20:35:36.460Z,60.04
2017-07-28T20:37:46.468Z,60.14
2017-07-28T20:40:10.827Z,60.5
2017-07-28T20:42:35.145Z,61.11
2017-07-28T20:44:51.008Z,61.66
2017-07-28T20:47:15.384Z,61.76
2017-07-28T20:49:41.815Z,61.76
2017-07-28T20:52:06.207Z,61.69
2017-07-28T20:54:30.602Z,62.24
2017-07-28T20:56:40.602Z,63.27
2017-07-28T20:59:04.958Z,63.92
2017-07-28T21:01:20.772Z,63.18
2017-07-28T21:03:45.093Z,63.18
2017-07-28T21:06:09.357Z,62.88
2017-07-28T21:08:25.198Z,63.27
2017-07-28T21:10:49.578Z,63.18
2017-07-28T21:14:34.184Z,63.01
2017-07-28T21:16:58.493Z,63.08
2017-07-28T21:19:20.480Z,63.18
2017-07-28T21:21:44.456Z,63.08
2017-07-28T21:24:09.441Z,62.69
2017-07-28T21:26:33.723Z,62.3
2017-07-28T21:28:41.111Z,62.69
2017-07-28T21:32:37.339Z,63.14
2017-07-28T21:35:01.655Z,63.63
2017-07-28T21:37:25.974Z,63.43
2017-07-28T21:39:33.297Z,63.53
2017-07-28T21:41:49.079Z,63.53
2017-07-28T21:43:55.743Z,63.92
2017-07-28T21:46:19.987Z,63.82
2017-07-28T21:48:44.306Z,64.11
2017-07-28T21:51:00.114Z,64.31
2017-07-28T21:53:24.380Z,64.08
2017-07-28T21:55:48.626Z,64.21
2017-07-28T21:58:04.383Z,64.11
2017-07-28T22:00:29.727Z,65.05
2017-07-28T22:02:54.134Z,66.01
2017-07-28T22:05:10.005Z,65.82
2017-07-28T22:07:34.311Z,65.85
2017-07-28T22:09:58.577Z,65.72
2017-07-28T22:12:22.872Z,66.4
2017-07-28T22:14:38.656Z,65.95
2017-07-28T22:17:02.880Z,66.78
2017-07-28T22:19:27.124Z,66.3
2017-07-28T22:21:51.373Z,66.69
2017-07-28T22:24:07.121Z,66.4
2017-07-28T22:26:31.391Z,66.78
2017-07-28T22:28:32.816Z,66.88
2017-07-28T22:30:58.642Z,66.59
2017-07-28T22:33:22.892Z,66.5
2017-07-28T22:35:16.526Z,66.5
2017-07-28T22:37:40.796Z,67.24
2017-07-28T22:40:05.029Z,66.94
2017-07-28T22:42:20.846Z,66.88
2017-07-28T22:44:45.010Z,66.59
2017-07-28T22:47:09.217Z,66.4
2017-07-28T22:49:33.426Z,66.59
2017-07-28T22:51:40.719Z,66.88
2017-07-28T22:54:04.994Z,66.59
2017-07-28T22:56:29.287Z,67.17
2017-07-28T22:58:53.570Z,67.52
2017-07-28T23:01:17.857Z,66.75
2017-07-28T23:03:33.590Z,67.43
2017-07-28T23:05:57.793Z,68.14
2017-07-28T23:08:07.735Z,68.04
2017-07-28T23:10:23.508Z,67.85
2017-07-28T23:12:47.730Z,68.3
2017-07-28T23:15:11.939Z,68.01
2017-07-28T23:17:27.719Z,67.17
2017-07-28T23:19:35.006Z,67.52
2017-07-28T23:21:59.214Z,67.62
2017-07-28T23:24:23.380Z,68.1
2017-07-28T23:26:39.266Z,68.49
2017-07-28T23:29:03.555Z,68.3
2017-07-28T23:31:27.850Z,67.72
2017-07-28T23:33:52.126Z,67.91
2017-07-28T23:35:53.542Z,68.2
2017-07-28T23:37:54.935Z,68.49
2017-07-28T23:40:19.163Z,68.1
2017-07-28T23:42:43.366Z,68.49
2017-07-28T23:45:07.545Z,68.68
2017-07-28T23:47:31.733Z,68.49
2017-07-28T23:49:55.869Z,68.3
2017-07-28T23:52:11.597Z,68.78
2017-07-28T23:54:21.549Z,69.17
2017-07-28T23:56:45.740Z,68.88
2017-07-28T23:59:09.955Z,68.88
